Time;durP1;ratioP1;P1;durP2;ratioP2;P2;SDS_P1;SDS_P2;PMS_P1;PMS_P2;Temp;Humidity;BMP_temperature;BMP_pressure;BME280_temperature;BME280_humidity;BME280_pressure;Samples;Min_cycle;Max_cycle;Signal;HPM_P1;HPM_P2
2021/12/30 00:01:53;;;;;;;64.22;26.92;;;4.00;99.90;;;;;;5092695;28;20693;-68
2021/12/30 00:04:29;;;;;;;50.67;23.67;;;4.00;99.90;;;;;;5092793;28;20638;-70
2021/12/30 00:06:56;;;;;;;64.63;27.02;;;4.00;99.90;;;;;;5093093;28;20176;-71
2021/12/30 00:09:25;;;;;;;64.90;25.33;;;4.00;99.90;;;;;;5092750;28;20602;-70
2021/12/30 00:11:54;;;;;;;61.88;25.38;;;4.00;99.90;;;;;;5092776;28;20172;-68
2021/12/30 00:14:24;;;;;;;54.95;25.80;;;4.00;99.90;;;;;;5093292;28;20219;-68
2021/12/30 00:16:53;;;;;;;49.08;22.58;;;4.00;99.90;;;;;;5092769;28;20224;-70
2021/12/30 00:19:23;;;;;;;57.33;25.25;;;4.00;99.90;;;;;;5092942;28;20223;-70
2021/12/30 00:22:03;;;;;;;61.72;24.05;;;4.00;99.90;;;;;;5092607;28;20602;-70
2021/12/30 00:24:33;;;;;;;57.20;24.20;;;4.00;99.90;;;;;;5092810;28;20180;-70
2021/12/30 00:27:06;;;;;;;62.67;25.85;;;4.00;99.90;;;;;;5092529;28;20191;-70
2021/12/30 00:29:36;;;;;;;61.08;24.23;;;4.00;99.90;;;;;;5092770;28;20183;-68
2021/12/30 00:32:05;;;;;;;59.45;25.10;;;4.00;99.90;;;;;;5091620;28;20191;-68
2021/12/30 00:34:43;;;;;;;50.28;23.23;;;4.00;99.90;;;;;;5092228;28;20225;-70
2021/12/30 00:37:10;;;;;;;57.03;24.40;;;4.00;99.90;;;;;;5092465;28;20188;-68
2021/12/30 00:39:38;;;;;;;52.53;23.20;;;4.00;99.90;;;;;;5092352;28;20200;-69
2021/12/30 00:42:04;;;;;;;54.17;23.48;;;4.00;99.90;;;;;;5092379;28;20212;-69
2021/12/30 00:44:42;;;;;;;65.18;25.52;;;4.00;99.90;;;;;;5092491;28;20176;-70
2021/12/30 00:47:09;;;;;;;58.50;22.85;;;4.00;99.90;;;;;;5092523;28;20195;-70
2021/12/30 00:49:37;;;;;;;56.05;23.17;;;4.00;99.90;;;;;;5092439;28;20533;-67
2021/12/30 00:52:09;;;;;;;67.70;23.30;;;4.10;99.90;;;;;;5092273;28;20688;-68
2021/12/30 00:54:45;;;;;;;45.40;20.92;;;4.00;99.90;;;;;;5092807;28;20177;-70
2021/12/30 00:57:19;;;;;;;59.90;21.77;;;4.00;99.90;;;;;;5092652;28;20188;-70
2021/12/30 00:59:47;;;;;;;59.17;23.02;;;4.10;99.90;;;;;;5092096;28;20214;-70
2021/12/30 01:02:19;;;;;;;52.08;20.98;;;4.10;99.90;;;;;;5091996;28;20177;-70
2021/12/30 01:04:46;;;;;;;53.22;22.55;;;4.10;99.90;;;;;;5092631;28;20169;-68
2021/12/30 01:07:16;;;;;;;61.08;21.05;;;4.10;99.90;;;;;;5092328;28;20189;-70
2021/12/30 01:09:54;;;;;;;50.70;22.63;;;4.10;99.90;;;;;;5092117;28;20183;-70
2021/12/30 01:12:22;;;;;;;65.35;22.35;;;4.10;99.90;;;;;;5092396;28;20224;-69
2021/12/30 01:14:51;;;;;;;59.60;22.38;;;4.10;99.90;;;;;;5091048;28;20177;-70
2021/12/30 01:17:27;;;;;;;54.10;22.08;;;4.10;99.90;;;;;;5093685;28;20326;-70
2021/12/30 01:19:55;;;;;;;57.40;20.90;;;4.20;99.90;;;;;;5096396;28;20184;-70
2021/12/30 01:22:25;;;;;;;50.72;20.23;;;4.20;99.90;;;;;;5095952;28;20608;-68
2021/12/30 01:24:57;;;;;;;63.70;21.30;;;4.20;99.90;;;;;;5096165;28;20539;-68
2021/12/30 01:27:31;;;;;;;65.90;22.15;;;4.20;99.90;;;;;;5095759;28;20311;-70
2021/12/30 01:29:59;;;;;;;57.75;21.83;;;4.20;99.90;;;;;;5096324;28;20177;-70
2021/12/30 01:32:26;;;;;;;53.03;20.58;;;4.20;99.90;;;;;;5095979;28;20240;-69
2021/12/30 01:34:56;;;;;;;58.08;21.80;;;4.20;99.90;;;;;;5095761;28;20605;-70
2021/12/30 01:37:24;;;;;;;56.60;22.27;;;4.20;99.90;;;;;;5095651;28;20261;-68
2021/12/30 01:39:53;;;;;;;50.92;20.88;;;4.20;99.90;;;;;;5095537;28;20239;-70
2021/12/30 01:42:22;;;;;;;50.00;20.25;;;4.20;99.90;;;;;;5095659;28;20208;-70
2021/12/30 01:44:50;;;;;;;61.20;22.92;;;4.20;99.90;;;;;;5095444;28;20229;-68
2021/12/30 01:47:19;;;;;;;52.63;19.98;;;4.20;99.90;;;;;;5095107;28;20204;-68
2021/12/30 01:49:46;;;;;;;51.33;19.77;;;4.20;99.90;;;;;;5095348;28;20347;-68
2021/12/30 01:52:16;;;;;;;63.13;21.65;;;4.20;99.90;;;;;;5095320;28;20215;-70
2021/12/30 01:54:46;;;;;;;45.17;18.25;;;4.20;99.90;;;;;;5095037;28;20706;-68
2021/12/30 01:57:17;;;;;;;54.85;20.67;;;4.20;99.90;;;;;;5095313;28;20216;-69
2021/12/30 01:59:47;;;;;;;49.00;21.27;;;4.20;99.90;;;;;;5095203;28;20209;-70
2021/12/30 02:02:15;;;;;;;50.80;21.75;;;4.20;99.90;;;;;;5095489;28;20226;-70
2021/12/30 02:04:41;;;;;;;50.20;19.52;;;4.30;99.90;;;;;;5094912;28;20173;-70
2021/12/30 02:07:10;;;;;;;49.60;19.60;;;4.30;99.90;;;;;;5095005;28;20180;-68
2021/12/30 02:09:46;;;;;;;46.42;19.98;;;4.30;99.90;;;;;;5094983;28;20176;-72
2021/12/30 02:12:13;;;;;;;44.20;18.88;;;4.30;99.90;;;;;;5095005;28;20195;-68
2021/12/30 02:14:39;;;;;;;38.15;17.15;;;4.30;99.90;;;;;;5095220;28;20534;-70
2021/12/30 02:17:10;;;;;;;47.80;19.10;;;4.30;99.90;;;;;;5094662;28;20228;-69
2021/12/30 02:19:42;;;;;;;44.10;19.65;;;4.30;99.90;;;;;;5095047;28;20684;-70
2021/12/30 02:22:09;;;;;;;49.97;19.13;;;4.40;99.90;;;;;;5094807;28;20188;-69
2021/12/30 02:24:49;;;;;;;49.33;20.88;;;4.30;99.90;;;;;;5094010;28;20169;-70
2021/12/30 02:27:27;;;;;;;75.25;26.20;;;4.40;99.90;;;;;;5094019;28;20782;-68
2021/12/30 02:30:07;;;;;;;92.70;32.95;;;4.40;99.90;;;;;;5094953;28;20649;-70
2021/12/30 02:32:52;;;;;;;91.45;28.08;;;4.30;99.90;;;;;;5094766;28;20258;-70
2021/12/30 02:35:22;;;;;;;92.22;32.53;;;4.30;99.90;;;;;;5094573;28;20180;-68
2021/12/30 02:38:01;;;;;;;80.43;31.60;;;4.30;99.90;;;;;;5094295;28;20232;-70
2021/12/30 02:40:43;;;;;;;61.53;23.55;;;4.40;99.90;;;;;;5094696;28;20175;-71
2021/12/30 02:43:18;;;;;;;51.58;19.85;;;4.40;99.90;;;;;;5094817;28;20661;-68
2021/12/30 02:45:46;;;;;;;49.38;21.27;;;4.40;99.90;;;;;;5094355;28;20184;-68
2021/12/30 02:48:21;;;;;;;62.58;24.50;;;4.40;99.90;;;;;;5093969;28;20614;-70
2021/12/30 02:50:51;;;;;;;47.20;21.20;;;4.40;99.90;;;;;;5094176;28;20218;-68
2021/12/30 02:53:20;;;;;;;48.83;22.42;;;4.40;99.90;;;;;;5094046;28;20196;-68
2021/12/30 02:56:00;;;;;;;36.53;17.85;;;4.40;99.90;;;;;;5094191;28;20177;-70
2021/12/30 02:58:34;;;;;;;36.78;16.85;;;4.40;99.90;;;;;;5093279;28;20231;-70
2021/12/30 03:01:32;;;;;;;45.90;20.50;;;4.40;99.90;;;;;;5093971;28;20343;-70
2021/12/30 03:04:03;;;;;;;67.25;26.23;;;4.40;99.90;;;;;;5090479;28;20200;-70
2021/12/30 03:06:35;;;;;;;77.18;30.38;;;4.40;99.90;;;;;;5093653;28;20192;-69
2021/12/30 03:09:09;;;;;;;43.22;18.92;;;4.40;99.90;;;;;;5093940;28;20224;-71
2021/12/30 03:11:36;;;;;;;54.30;24.52;;;4.40;99.90;;;;;;5093827;28;20180;-68
2021/12/30 03:14:06;;;;;;;45.78;21.52;;;4.40;99.90;;;;;;5093731;28;20196;-71
2021/12/30 03:16:36;;;;;;;35.55;16.50;;;4.40;99.90;;;;;;5093538;28;20180;-70
2021/12/30 03:19:04;;;;;;;49.35;22.35;;;4.40;99.90;;;;;;5093650;28;20342;-67
2021/12/30 03:21:47;;;;;;;48.25;21.10;;;4.40;99.90;;;;;;5093535;28;20531;-70
2021/12/30 03:24:14;;;;;;;45.22;23.38;;;4.40;99.90;;;;;;5093583;28;20199;-70
2021/12/30 03:26:43;;;;;;;54.15;22.27;;;4.40;99.90;;;;;;5093075;28;20180;-69
2021/12/30 03:29:15;;;;;;;50.20;22.45;;;4.40;99.90;;;;;;5093435;28;20295;-68
2021/12/30 03:31:42;;;;;;;41.05;20.60;;;4.40;99.90;;;;;;5093589;28;20176;-68
2021/12/30 03:34:17;;;;;;;42.22;20.92;;;4.40;99.90;;;;;;5093267;28;20200;-70
2021/12/30 03:36:44;;;;;;;46.55;20.75;;;4.40;99.90;;;;;;5093385;28;20262;-67
2021/12/30 03:39:14;;;;;;;42.67;21.02;;;4.40;99.90;;;;;;5093885;28;20665;-69
2021/12/30 03:41:41;;;;;;;42.28;21.15;;;4.40;99.90;;;;;;5093318;28;20185;-69
2021/12/30 03:44:11;;;;;;;40.58;20.25;;;4.40;99.90;;;;;;5093235;28;20200;-68
2021/12/30 03:46:42;;;;;;;44.25;22.27;;;4.40;99.90;;;;;;5094576;28;20176;-70
2021/12/30 03:49:10;;;;;;;28.30;15.60;;;4.40;99.90;;;;;;5093224;28;20536;-70
2021/12/30 03:51:42;;;;;;;28.65;16.23;;;4.40;99.90;;;;;;5093128;28;20259;-68
2021/12/30 03:54:09;;;;;;;33.13;17.00;;;4.40;99.90;;;;;;5093172;28;20196;-68
2021/12/30 03:56:38;;;;;;;53.72;24.20;;;4.40;99.90;;;;;;5093071;28;20184;-70
2021/12/30 03:59:11;;;;;;;41.60;22.38;;;4.40;99.90;;;;;;5092915;28;20218;-69
2021/12/30 04:01:42;;;;;;;26.60;14.85;;;4.40;99.90;;;;;;5092581;28;20271;-70
2021/12/30 04:04:09;;;;;;;34.70;15.10;;;4.30;99.90;;;;;;5093156;28;20196;-68
2021/12/30 04:06:40;;;;;;;29.52;14.43;;;4.30;99.90;;;;;;5092863;28;20206;-70
2021/12/30 04:09:07;;;;;;;29.10;14.90;;;4.30;99.90;;;;;;5092820;28;20245;-69
2021/12/30 04:11:41;;;;;;;29.65;15.57;;;4.30;99.90;;;;;;5094223;28;20183;-71
2021/12/30 04:14:14;;;;;;;26.13;15.27;;;4.30;99.90;;;;;;5092578;28;20192;-70
2021/12/30 04:16:43;;;;;;;33.50;16.08;;;4.30;99.90;;;;;;5092490;28;20180;-70
2021/12/30 04:19:09;;;;;;;33.03;15.05;;;4.40;99.90;;;;;;5092637;28;20688;-69
2021/12/30 04:21:38;;;;;;;27.48;14.88;;;4.30;99.90;;;;;;5092591;28;20181;-68
2021/12/30 04:24:14;;;;;;;27.90;14.85;;;4.30;99.90;;;;;;5092495;28;20197;-69
2021/12/30 04:26:41;;;;;;;30.48;15.30;;;4.30;99.90;;;;;;5092634;28;20208;-70
2021/12/30 04:29:09;;;;;;;35.00;15.50;;;4.30;99.90;;;;;;5092463;28;20239;-70
2021/12/30 04:31:40;;;;;;;29.23;15.82;;;4.30;99.90;;;;;;5092206;28;20184;-69
2021/12/30 04:34:10;;;;;;;29.00;16.00;;;4.30;99.90;;;;;;5092567;28;20680;-70
2021/12/30 04:36:39;;;;;;;28.27;15.70;;;4.30;99.90;;;;;;5093764;28;20545;-70
2021/12/30 04:39:07;;;;;;;28.73;14.48;;;4.30;99.90;;;;;;5092677;28;20212;-71
2021/12/30 04:41:34;;;;;;;32.00;15.82;;;4.20;99.90;;;;;;5092413;28;20195;-72
2021/12/30 04:44:03;;;;;;;30.30;14.57;;;4.20;99.90;;;;;;5092307;28;20287;-68
2021/12/30 04:46:36;;;;;;;27.90;14.57;;;4.30;99.90;;;;;;5092282;28;20522;-69
2021/12/30 04:49:05;;;;;;;31.35;15.10;;;4.20;99.90;;;;;;5092578;28;20653;-69
2021/12/30 04:51:34;;;;;;;31.45;16.45;;;4.20;99.90;;;;;;5095012;28;20184;-69
2021/12/30 04:54:09;;;;;;;29.48;15.30;;;4.20;99.90;;;;;;5096456;28;20193;-70
2021/12/30 04:56:40;;;;;;;32.00;16.08;;;4.20;99.90;;;;;;5096238;28;20185;-70
2021/12/30 04:59:11;;;;;;;30.45;15.48;;;4.20;99.90;;;;;;5096217;28;20261;-68
2021/12/30 05:01:39;;;;;;;33.75;15.32;;;4.20;99.90;;;;;;5096316;28;20197;-69
2021/12/30 05:04:11;;;;;;;32.55;14.95;;;4.20;99.90;;;;;;5096333;28;20618;-70
2021/12/30 05:06:38;;;;;;;29.95;15.90;;;4.20;99.90;;;;;;5096230;28;20676;-70
2021/12/30 05:09:08;;;;;;;30.80;14.73;;;4.20;99.90;;;;;;5095986;28;20201;-71
2021/12/30 05:11:40;;;;;;;39.47;18.10;;;4.20;99.90;;;;;;5096107;28;20213;-68
2021/12/30 05:14:07;;;;;;;34.38;16.02;;;4.20;99.90;;;;;;5096003;28;20608;-68
2021/12/30 05:16:34;;;;;;;31.60;14.98;;;4.20;99.90;;;;;;5095576;28;20199;-68
2021/12/30 05:19:02;;;;;;;26.17;14.18;;;4.10;99.90;;;;;;5096043;28;20223;-69
2021/12/30 05:21:38;;;;;;;31.92;15.65;;;4.10;99.90;;;;;;5095095;28;20197;-68
2021/12/30 05:24:04;;;;;;;37.13;16.25;;;4.10;99.90;;;;;;5096157;28;20722;-69
2021/12/30 05:26:33;;;;;;;32.03;17.98;;;4.10;99.90;;;;;;5095460;28;20173;-70
2021/12/30 05:29:03;;;;;;;28.50;13.07;;;4.10;99.90;;;;;;5095737;28;20207;-68
2021/12/30 05:31:32;;;;;;;31.55;14.40;;;4.10;99.90;;;;;;5095734;28;20680;-70
2021/12/30 05:34:02;;;;;;;25.90;13.95;;;4.10;99.90;;;;;;5095721;28;20196;-70
2021/12/30 05:36:29;;;;;;;24.58;13.23;;;4.00;99.90;;;;;;5095983;28;20184;-68
2021/12/30 05:39:00;;;;;;;27.70;15.05;;;4.00;99.90;;;;;;5096852;28;20235;-71
2021/12/30 05:41:31;;;;;;;28.00;14.98;;;4.00;99.90;;;;;;5095689;28;20187;-72
2021/12/30 05:43:58;;;;;;;31.30;14.15;;;4.00;99.90;;;;;;5094483;28;20270;-68
2021/12/30 05:46:31;;;;;;;31.58;14.70;;;4.00;99.90;;;;;;5095333;28;20184;-70
2021/12/30 05:49:01;;;;;;;30.73;15.77;;;4.00;99.90;;;;;;5095262;28;20558;-68
2021/12/30 05:51:28;;;;;;;36.85;17.27;;;4.00;99.90;;;;;;5094752;28;20195;-69
2021/12/30 05:53:57;;;;;;;29.83;15.57;;;4.00;99.90;;;;;;5095283;28;20193;-70
2021/12/30 05:56:25;;;;;;;33.65;15.77;;;4.00;99.90;;;;;;5095168;28;20566;-70
2021/12/30 05:58:55;;;;;;;33.90;17.00;;;4.10;99.90;;;;;;5095198;28;20216;-70
2021/12/30 06:01:24;;;;;;;27.17;15.07;;;4.10;99.90;;;;;;5095602;28;20176;-68
2021/12/30 06:03:57;;;;;;;31.63;15.30;;;4.10;99.90;;;;;;5094483;28;20200;-68
2021/12/30 06:06:28;;;;;;;33.90;15.52;;;4.10;99.90;;;;;;5095471;28;20233;-68
2021/12/30 06:08:56;;;;;;;37.55;16.35;;;4.10;99.90;;;;;;5094922;28;20660;-70
2021/12/30 06:11:26;;;;;;;34.22;17.52;;;4.10;99.90;;;;;;5095024;28;20181;-70
2021/12/30 06:13:53;;;;;;;38.22;17.42;;;4.10;99.90;;;;;;5094761;28;20203;-68
2021/12/30 06:16:20;;;;;;;30.67;17.08;;;4.10;99.90;;;;;;5094487;28;20195;-70
2021/12/30 06:18:53;;;;;;;37.80;17.90;;;4.10;99.90;;;;;;5093067;28;20228;-68
2021/12/30 06:21:19;;;;;;;27.08;13.93;;;4.10;99.90;;;;;;5095449;28;20259;-68
2021/12/30 06:23:47;;;;;;;30.30;15.85;;;4.10;99.90;;;;;;5077783;28;20246;-68
2021/12/30 06:26:14;;;;;;;36.05;15.98;;;4.10;99.90;;;;;;5095129;28;20168;-68
2021/12/30 06:28:43;;;;;;;30.25;14.43;;;4.10;99.90;;;;;;5094257;28;20203;-68
2021/12/30 06:31:10;;;;;;;36.17;18.30;;;4.10;99.90;;;;;;5094720;28;20177;-70
2021/12/30 06:33:36;;;;;;;33.88;18.13;;;4.10;99.90;;;;;;5094539;28;20246;-70
2021/12/30 06:36:04;;;;;;;39.67;17.47;;;4.10;99.90;;;;;;5094589;28;20184;-69
2021/12/30 06:38:34;;;;;;;28.15;14.30;;;4.10;99.90;;;;;;5093710;28;21097;-68
2021/12/30 06:41:03;;;;;;;34.60;14.88;;;4.10;99.90;;;;;;5081303;28;20165;-68
2021/12/30 06:43:32;;;;;;;47.33;18.75;;;4.10;99.90;;;;;;5094516;28;20204;-68
2021/12/30 06:46:03;;;;;;;47.85;23.20;;;4.10;99.90;;;;;;5093150;28;20626;-70
2021/12/30 06:48:31;;;;;;;49.30;21.38;;;4.10;99.90;;;;;;5092781;28;20204;-70
2021/12/30 06:51:00;;;;;;;36.97;18.80;;;4.00;99.90;;;;;;5094116;28;20169;-68
2021/12/30 06:53:34;;;;;;;29.50;13.73;;;4.10;99.90;;;;;;5094143;28;20204;-70
2021/12/30 06:56:08;;;;;;;32.70;15.85;;;4.00;99.90;;;;;;5094843;28;20199;-71
2021/12/30 06:58:37;;;;;;;49.92;27.02;;;4.00;99.90;;;;;;5093896;28;20219;-70
2021/12/30 07:01:05;;;;;;;86.43;54.65;;;4.00;99.90;;;;;;5094102;28;20642;-68
2021/12/30 07:03:37;;;;;;;41.92;19.95;;;4.00;99.90;;;;;;5093575;28;20196;-71
2021/12/30 07:06:10;;;;;;;37.97;17.20;;;4.00;99.90;;;;;;5092986;28;20570;-68
2021/12/30 07:08:38;;;;;;;30.33;15.80;;;4.00;99.90;;;;;;5093818;28;20207;-68
2021/12/30 07:11:09;;;;;;;41.03;15.75;;;4.00;99.90;;;;;;5093711;28;20666;-68
2021/12/30 07:13:38;;;;;;;30.98;15.10;;;4.00;99.90;;;;;;5092973;28;20203;-68
2021/12/30 07:16:06;;;;;;;33.17;15.38;;;4.00;99.90;;;;;;5093618;28;20191;-70
2021/12/30 07:18:34;;;;;;;31.55;14.75;;;4.00;99.90;;;;;;5093463;28;20235;-70
2021/12/30 07:21:01;;;;;;;51.00;19.45;;;4.00;99.90;;;;;;5087679;28;20906;-68
2021/12/30 07:23:30;;;;;;;40.47;18.83;;;3.90;99.90;;;;;;5093112;28;20208;-70
2021/12/30 07:25:56;;;;;;;48.25;19.40;;;4.00;99.90;;;;;;5093574;28;20183;-70
2021/12/30 07:28:27;;;;;;;35.85;16.38;;;3.90;99.90;;;;;;5093553;28;20231;-69
2021/12/30 07:30:54;;;;;;;43.92;16.83;;;4.00;99.90;;;;;;5092285;28;20617;-70
2021/12/30 07:33:24;;;;;;;45.92;26.52;;;4.00;99.90;;;;;;5092307;28;20208;-70
2021/12/30 07:35:55;;;;;;;40.25;21.15;;;4.00;99.90;;;;;;5092991;28;20650;-71
2021/12/30 07:38:23;;;;;;;51.00;25.20;;;4.00;99.90;;;;;;5093120;28;20270;-68
2021/12/30 07:40:50;;;;;;;37.20;17.23;;;4.00;99.90;;;;;;5092487;28;20218;-70
2021/12/30 07:43:20;;;;;;;33.65;15.50;;;4.00;99.90;;;;;;5091139;28;20677;-68
2021/12/30 07:45:48;;;;;;;29.17;14.48;;;4.00;99.90;;;;;;5091852;28;20255;-68
2021/12/30 07:48:15;;;;;;;33.30;14.75;;;3.90;99.90;;;;;;5089807;28;20211;-70
2021/12/30 07:50:43;;;;;;;37.60;14.43;;;3.90;99.90;;;;;;5088670;28;20177;-68
2021/12/30 07:53:09;;;;;;;28.17;13.90;;;3.90;99.90;;;;;;5086086;28;20566;-70
2021/12/30 07:55:38;;;;;;;28.08;13.88;;;3.90;99.90;;;;;;5089675;28;20574;-69
2021/12/30 07:58:05;;;;;;;26.85;12.80;;;3.90;99.90;;;;;;5090441;28;20315;-69
2021/12/30 08:00:32;;;;;;;35.47;17.60;;;3.90;99.90;;;;;;5090834;28;20177;-68
2021/12/30 08:03:06;;;;;;;27.00;14.40;;;3.90;99.90;;;;;;5090027;28;20295;-68
2021/12/30 08:05:33;;;;;;;71.30;38.47;;;3.80;99.90;;;;;;5090401;28;20496;-68
2021/12/30 08:07:59;;;;;;;60.05;29.30;;;3.90;99.90;;;;;;5090447;28;20208;-68
2021/12/30 08:10:29;;;;;;;26.98;14.00;;;3.90;99.90;;;;;;5090375;28;20176;-68
2021/12/30 08:12:58;;;;;;;46.83;27.75;;;3.90;99.90;;;;;;5090639;28;20257;-70
2021/12/30 08:15:25;;;;;;;23.27;11.07;;;3.90;99.90;;;;;;5090569;28;20176;-70
2021/12/30 08:17:55;;;;;;;24.30;12.57;;;3.90;99.90;;;;;;5091630;28;20724;-70
2021/12/30 08:20:24;;;;;;;23.73;10.45;;;3.90;99.90;;;;;;5092200;28;20188;-70
2021/12/30 08:22:52;;;;;;;27.15;11.73;;;3.90;99.90;;;;;;5092463;28;20196;-69
2021/12/30 08:25:20;;;;;;;22.63;12.25;;;4.00;99.90;;;;;;5091606;28;20182;-70
2021/12/30 08:27:50;;;;;;;25.17;13.13;;;4.00;99.90;;;;;;5092648;28;20215;-68
2021/12/30 08:30:20;;;;;;;30.20;14.10;;;4.00;99.90;;;;;;5092664;28;20200;-70
2021/12/30 08:32:47;;;;;;;16.95;10.13;;;3.90;99.90;;;;;;5090066;28;20283;-70
2021/12/30 08:35:14;;;;;;;19.38;10.15;;;3.90;99.90;;;;;;5089011;28;20628;-72
2021/12/30 08:37:47;;;;;;;27.77;11.55;;;4.00;99.90;;;;;;5090202;28;20204;-68
2021/12/30 08:40:16;;;;;;;25.10;11.40;;;4.00;99.90;;;;;;5091633;28;20191;-68
2021/12/30 08:42:46;;;;;;;24.58;11.70;;;4.00;99.90;;;;;;5091553;28;20216;-70
2021/12/30 08:45:24;;;;;;;29.05;18.75;;;4.00;99.90;;;;;;5091429;28;20176;-70
2021/12/30 08:47:51;;;;;;;21.38;11.85;;;4.00;99.90;;;;;;5090742;28;20192;-68
2021/12/30 08:50:18;;;;;;;30.23;19.77;;;4.00;99.90;;;;;;5092384;28;20173;-68
2021/12/30 08:52:46;;;;;;;52.30;40.05;;;4.00;99.90;;;;;;5093982;28;20200;-70
2021/12/30 08:55:19;;;;;;;29.30;15.30;;;4.00;99.90;;;;;;5092270;28;20177;-68
2021/12/30 08:57:48;;;;;;;21.00;11.38;;;4.00;99.90;;;;;;5092214;28;20208;-70
2021/12/30 09:00:29;;;;;;;19.67;12.10;;;4.00;99.90;;;;;;5090881;28;20706;-70
2021/12/30 09:03:04;;;;;;;21.20;10.20;;;4.00;99.90;;;;;;5091849;28;20208;-68
2021/12/30 09:05:31;;;;;;;19.77;11.60;;;4.00;99.90;;;;;;5090093;28;20180;-68
2021/12/30 09:08:00;;;;;;;21.50;10.70;;;4.00;99.90;;;;;;5089577;28;20196;-68
2021/12/30 09:10:40;;;;;;;22.20;11.65;;;4.00;99.90;;;;;;5091096;28;20187;-68
2021/12/30 09:13:08;;;;;;;19.40;9.02;;;4.00;99.90;;;;;;5091827;28;20235;-68
2021/12/30 09:15:36;;;;;;;17.75;12.15;;;4.00;99.90;;;;;;5090333;28;20177;-70
2021/12/30 09:18:08;;;;;;;26.73;14.77;;;3.90;99.90;;;;;;5090028;28;20285;-70
2021/12/30 09:20:39;;;;;;;50.38;34.13;;;3.90;99.90;;;;;;5089792;28;20219;-68
2021/12/30 09:23:10;;;;;;;52.67;38.17;;;3.90;99.90;;;;;;5090050;28;20216;-68
2021/12/30 09:25:39;;;;;;;23.38;15.75;;;3.90;99.90;;;;;;5089255;28;20217;-68
2021/12/30 09:28:07;;;;;;;23.75;14.30;;;3.90;99.90;;;;;;5089571;28;20204;-70
2021/12/30 09:30:35;;;;;;;19.45;14.98;;;4.00;99.90;;;;;;5091406;28;20172;-68
2021/12/30 09:33:06;;;;;;;15.68;10.95;;;3.90;99.90;;;;;;5091711;28;20219;-68
2021/12/30 09:35:33;;;;;;;15.65;9.18;;;3.90;99.90;;;;;;5090202;28;20313;-70
2021/12/30 09:38:03;;;;;;;15.05;8.35;;;4.00;99.90;;;;;;5091197;28;20204;-71
2021/12/30 09:40:35;;;;;;;16.77;9.05;;;4.00;99.90;;;;;;5093114;28;20233;-70
2021/12/30 09:43:04;;;;;;;19.42;12.60;;;4.00;99.90;;;;;;5093647;28;20299;-70
2021/12/30 09:45:38;;;;;;;13.73;9.05;;;4.00;99.90;;;;;;5093570;28;20173;-68
2021/12/30 09:48:16;;;;;;;14.00;9.13;;;4.00;99.90;;;;;;5093592;28;20204;-70
2021/12/30 09:50:50;;;;;;;16.73;11.25;;;4.00;99.90;;;;;;5094333;28;20199;-70
2021/12/30 09:53:21;;;;;;;19.58;14.32;;;4.10;99.90;;;;;;5095406;28;20227;-70
2021/12/30 09:55:52;;;;;;;20.02;13.13;;;4.10;99.90;;;;;;5094644;28;20620;-68
2021/12/30 09:58:19;;;;;;;16.42;10.05;;;4.10;99.90;;;;;;5090426;28;20238;-70
2021/12/30 10:00:51;;;;;;;16.60;9.98;;;4.00;99.90;;;;;;5089903;28;20185;-70
2021/12/30 10:03:21;;;;;;;14.75;9.00;;;4.00;99.90;;;;;;5088187;28;20568;-70
2021/12/30 10:05:53;;;;;;;17.50;10.75;;;4.00;99.90;;;;;;5081297;28;20617;-69
2021/12/30 10:09:51;;;;;;;14.15;9.90;;;4.00;99.90;;;;;;5089398;27;20579;-70
2021/12/30 10:12:39;;;;;;;14.65;9.65;;;4.00;99.90;;;;;;5069652;28;20258;-71
2021/12/30 10:15:06;;;;;;;16.25;12.15;;;4.00;99.90;;;;;;5067941;28;20184;-70
2021/12/30 10:17:34;;;;;;;27.08;18.13;;;4.10;99.90;;;;;;5066847;28;20197;-73
2021/12/30 10:20:24;;;;;;;23.58;15.52;;;4.10;99.90;;;;;;5068248;28;20168;-72
2021/12/30 10:22:52;;;;;;;29.17;19.38;;;4.10;99.90;;;;;;5069807;28;20291;-74
2021/12/30 10:25:28;;;;;;;15.15;11.43;;;4.00;99.90;;;;;;5069914;28;20186;-70
2021/12/30 10:27:58;;;;;;;13.95;10.05;;;4.00;99.90;;;;;;5068755;28;20212;-68
2021/12/30 10:30:47;;;;;;;38.65;29.30;;;4.10;99.90;;;;;;5069593;28;20677;-67
2021/12/30 10:33:17;;;;;;;20.88;16.60;;;4.10;99.90;;;;;;5065099;28;20258;-69
2021/12/30 10:35:49;;;;;;;24.50;16.80;;;4.10;99.90;;;;;;5067120;28;20215;-71
2021/12/30 10:38:18;;;;;;;22.08;15.52;;;4.20;99.90;;;;;;5068685;28;20201;-68
2021/12/30 10:40:51;;;;;;;23.55;12.98;;;4.20;99.90;;;;;;5069061;28;20629;-69
2021/12/30 10:43:38;;;;;;;17.70;13.23;;;4.20;99.90;;;;;;5070180;28;20207;-70
2021/12/30 10:46:12;;;;;;;32.72;23.45;;;4.30;99.90;;;;;;5069560;28;20172;-68
2021/12/30 10:49:03;;;;;;;26.85;23.92;;;4.30;99.90;;;;;;5069425;28;20220;-69
2021/12/30 10:51:51;;;;;;;16.98;13.90;;;4.30;99.90;;;;;;5070753;28;20173;-68
2021/12/30 10:54:27;;;;;;;17.60;11.70;;;4.30;99.90;;;;;;5072227;28;20205;-68
2021/12/30 10:57:10;;;;;;;17.45;10.70;;;4.30;99.90;;;;;;5070197;28;20168;-70
2021/12/30 10:59:48;;;;;;;22.98;15.07;;;4.30;99.90;;;;;;5069290;28;20435;-70
2021/12/30 11:02:26;;;;;;;20.63;12.10;;;4.30;99.90;;;;;;5069793;28;20265;-68
2021/12/30 11:05:05;;;;;;;19.95;11.77;;;4.30;99.90;;;;;;5070216;28;20639;-68
2021/12/30 11:07:51;;;;;;;29.83;18.80;;;4.40;99.90;;;;;;5069546;28;20200;-67
2021/12/30 11:10:37;;;;;;;22.77;16.88;;;4.30;99.90;;;;;;5070002;28;20184;-70
2021/12/30 11:13:22;;;;;;;24.88;16.17;;;4.30;99.90;;;;;;5072173;28;20209;-68
2021/12/30 11:16:04;;;;;;;23.33;14.45;;;4.30;99.90;;;;;;5071848;28;20277;-69
2021/12/30 11:18:40;;;;;;;22.10;13.73;;;4.40;99.90;;;;;;5067294;28;20230;-70
2021/12/30 11:21:32;;;;;;;25.20;14.98;;;4.40;99.90;;;;;;5047972;28;20298;-69
2021/12/30 11:24:00;;;;;;;21.65;13.40;;;4.40;99.90;;;;;;5058014;28;20215;-68
2021/12/30 11:26:28;;;;;;;20.80;15.43;;;4.50;99.90;;;;;;5073606;28;20264;-70
2021/12/30 11:28:54;;;;;;;23.13;15.45;;;4.50;99.90;;;;;;5052786;28;20336;-68
2021/12/30 11:31:22;;;;;;;23.40;16.45;;;4.50;99.90;;;;;;5061338;28;20513;-67
2021/12/30 11:33:49;;;;;;;23.33;15.23;;;4.60;99.90;;;;;;5057873;28;20220;-70
2021/12/30 11:36:17;;;;;;;25.20;16.50;;;4.70;99.90;;;;;;5058349;28;20180;-69
2021/12/30 11:38:45;;;;;;;24.60;16.83;;;4.70;99.90;;;;;;5056428;28;20216;-67
2021/12/30 11:41:24;;;;;;;27.13;17.10;;;4.70;99.90;;;;;;5040667;28;20600;-68
2021/12/30 11:43:55;;;;;;;46.78;35.28;;;4.80;99.90;;;;;;5036141;28;20293;-68
2021/12/30 11:46:38;;;;;;;33.15;25.00;;;4.80;99.90;;;;;;5036383;28;20174;-68
2021/12/30 11:49:12;;;;;;;32.35;23.00;;;4.80;99.90;;;;;;5035881;28;20663;-69
2021/12/30 11:51:50;;;;;;;33.08;22.80;;;4.80;99.90;;;;;;5036821;28;20173;-68
2021/12/30 11:54:37;;;;;;;30.40;24.85;;;4.80;99.90;;;;;;5053786;28;20690;-70
2021/12/30 11:57:34;;;;;;;35.78;26.90;;;4.80;99.90;;;;;;5057676;28;20207;-68
2021/12/30 12:00:36;;;;;;;39.47;30.33;;;4.80;99.90;;;;;;5047482;28;20643;-71
2021/12/30 12:03:22;;;;;;;28.55;20.92;;;4.80;99.90;;;;;;5045389;28;20224;-68
2021/12/30 12:05:50;;;;;;;26.90;18.58;;;4.80;99.90;;;;;;5037522;28;20170;-68
2021/12/30 12:08:17;;;;;;;34.50;23.60;;;4.90;99.90;;;;;;5025139;28;20619;-70
2021/12/30 12:11:14;;;;;;;31.48;21.17;;;4.90;99.90;;;;;;5013785;28;20175;-68
2021/12/30 12:13:45;;;;;;;31.25;21.52;;;4.80;99.90;;;;;;5012463;28;20211;-70
2021/12/30 12:16:21;;;;;;;31.63;22.25;;;4.80;99.90;;;;;;5012618;28;20179;-70
2021/12/30 12:19:15;;;;;;;18.80;14.38;;;4.90;99.90;;;;;;5015884;28;20202;-69
2021/12/30 12:21:43;;;;;;;21.95;14.23;;;4.90;99.90;;;;;;5014702;28;20187;-68
2021/12/30 12:24:28;;;;;;;17.15;12.70;;;5.00;99.90;;;;;;5012417;28;20199;-70
2021/12/30 12:27:06;;;;;;;16.33;11.43;;;5.00;99.90;;;;;;5012267;28;20262;-68
2021/12/30 12:29:55;;;;;;;18.30;13.73;;;5.00;99.90;;;;;;5012034;28;20249;-70
2021/12/30 12:32:39;;;;;;;18.92;14.55;;;5.00;99.90;;;;;;5011534;28;20203;-68
2021/12/30 12:35:18;;;;;;;19.60;15.82;;;5.00;99.90;;;;;;5012453;28;20175;-70
2021/12/30 12:37:47;;;;;;;19.17;13.20;;;5.00;99.90;;;;;;5013907;28;20210;-68
2021/12/30 12:40:16;;;;;;;20.48;13.32;;;5.00;99.90;;;;;;5013820;28;20175;-67
2021/12/30 12:42:51;;;;;;;20.95;12.40;;;5.10;99.90;;;;;;5013756;28;20207;-68
2021/12/30 12:45:31;;;;;;;17.63;12.30;;;5.10;99.90;;;;;;5014937;28;20174;-70
2021/12/30 12:50:47;;;;;;;20.88;12.10;;;5.20;99.90;;;;;;5015343;28;20210;-68
2021/12/30 12:53:24;;;;;;;16.70;11.50;;;5.20;99.90;;;;;;5013790;28;20210;-68
2021/12/30 12:55:53;;;;;;;16.85;12.95;;;5.20;99.90;;;;;;5013163;28;20181;-68
2021/12/30 12:58:25;;;;;;;19.80;12.63;;;5.20;99.90;;;;;;5013632;28;20540;-69
2021/12/30 13:00:55;;;;;;;18.67;13.35;;;5.20;99.90;;;;;;5012380;28;20186;-68
2021/12/30 13:03:23;;;;;;;19.33;13.60;;;5.10;99.90;;;;;;5011617;28;20261;-69
2021/12/30 13:06:18;;;;;;;17.77;12.90;;;5.10;99.90;;;;;;5011730;28;20558;-70